Time;durP1;ratioP1;P1;durP2;ratioP2;P2;SDS_P1;SDS_P2;PMS_P1;PMS_P2;Temp;Humidity;BMP_temperature;BMP_pressure;BME280_temperature;BME280_humidity;BME280_pressure;Samples;Min_cycle;Max_cycle;Signal;HPM_P1;HPM_P2
2022/01/16 00:01:43;;;;;;;28.48;15.10;;;;;;;2.49;87.01;101921.63;5069201;28;20484;-67
2022/01/16 00:04:06;;;;;;;28.25;15.00;;;;;;;2.36;87.58;101924.88;5067604;28;20139;-67
2022/01/16 00:06:36;;;;;;;29.40;14.73;;;;;;;2.44;87.32;101928.84;5066893;28;20048;-67
2022/01/16 00:09:04;;;;;;;30.88;15.52;;;;;;;2.43;87.03;101934.16;5068890;28;20037;-67
2022/01/16 00:11:32;;;;;;;30.70;15.25;;;;;;;2.52;87.21;101938.94;5050213;28;20041;-67
2022/01/16 00:13:58;;;;;;;29.80;15.27;;;;;;;2.48;87.08;101945.25;5058188;28;20508;-67
2022/01/16 00:16:25;;;;;;;29.88;14.18;;;;;;;2.50;86.73;101935.56;5066646;28;20068;-67
2022/01/16 00:18:53;;;;;;;29.35;14.55;;;;;;;2.53;87.15;101935.41;5067146;28;20438;-67
2022/01/16 00:21:23;;;;;;;27.80;14.85;;;;;;;2.56;86.91;101943.13;5067032;28;20045;-67
2022/01/16 00:23:51;;;;;;;29.40;15.23;;;;;;;2.59;87.07;101948.22;5069003;28;20043;-67
2022/01/16 00:26:19;;;;;;;31.10;15.23;;;;;;;2.59;86.50;101944.75;5067256;28;20098;-67
2022/01/16 00:28:46;;;;;;;29.30;15.10;;;;;;;2.59;86.72;101926.41;5064231;28;20061;-67
2022/01/16 00:31:13;;;;;;;29.48;14.73;;;;;;;2.67;86.35;101929.50;5053623;28;20044;-67
2022/01/16 00:33:42;;;;;;;30.83;15.57;;;;;;;2.65;86.51;101929.56;5055866;28;20467;-67
2022/01/16 00:36:10;;;;;;;33.40;15.98;;;;;;;2.61;86.39;101921.94;5054801;28;20041;-67
2022/01/16 00:38:40;;;;;;;30.13;15.45;;;;;;;2.75;86.41;101942.22;5055348;28;20051;-67
2022/01/16 00:41:07;;;;;;;28.67;15.27;;;;;;;2.73;85.99;101944.94;5055289;28;20037;-67
2022/01/16 00:43:34;;;;;;;31.92;16.23;;;;;;;2.66;86.67;101947.00;5054258;28;20513;-67
2022/01/16 00:46:01;;;;;;;33.53;16.73;;;;;;;2.62;86.97;101944.59;5053945;28;20154;-67
2022/01/16 00:48:28;;;;;;;34.13;16.67;;;;;;;2.69;86.82;101946.00;5053762;28;20041;-67
2022/01/16 00:50:55;;;;;;;30.05;15.65;;;;;;;2.54;87.34;101957.22;5054780;28;20091;-67
2022/01/16 00:53:21;;;;;;;33.90;16.63;;;;;;;2.62;87.15;101950.69;5054015;28;20496;-67
2022/01/16 00:55:48;;;;;;;32.95;16.95;;;;;;;2.67;85.89;101956.56;5037352;28;20052;-67
2022/01/16 00:58:15;;;;;;;32.60;16.77;;;;;;;2.60;86.53;101964.78;5054897;28;20052;-67
2022/01/16 01:00:42;;;;;;;35.60;17.15;;;;;;;2.55;87.22;101944.06;5054909;28;20091;-67
2022/01/16 01:03:08;;;;;;;30.27;17.88;;;;;;;2.59;87.23;101931.66;5054699;28;20044;-67
2022/01/16 01:05:35;;;;;;;33.13;17.23;;;;;;;2.60;87.24;101923.72;5034839;28;20049;-67
2022/01/16 01:08:04;;;;;;;33.03;17.08;;;;;;;2.48;87.33;101948.72;5053740;28;20041;-68
2022/01/16 01:10:34;;;;;;;32.15;17.52;;;;;;;2.45;87.91;101940.16;5050940;28;20041;-68
2022/01/16 01:13:09;;;;;;;37.67;18.70;;;;;;;2.35;88.33;101955.47;5034880;28;20058;-68
2022/01/16 01:15:43;;;;;;;35.83;17.33;;;;;;;2.47;87.83;101946.16;5053434;28;20037;-69
2022/01/16 01:18:10;;;;;;;36.30;18.13;;;;;;;2.36;88.45;101970.25;5050723;28;20037;-67
2022/01/16 01:20:40;;;;;;;32.42;16.08;;;;;;;2.36;88.17;101953.69;5053585;28;20094;-67
2022/01/16 01:23:07;;;;;;;39.85;19.42;;;;;;;2.28;88.75;101960.13;5054292;28;20044;-67
2022/01/16 01:25:35;;;;;;;39.53;19.40;;;;;;;2.29;89.66;101966.19;5054097;28;20386;-67
2022/01/16 01:28:01;;;;;;;38.10;19.15;;;;;;;2.40;88.90;101966.56;5054086;28;20049;-67
2022/01/16 01:30:28;;;;;;;39.55;19.92;;;;;;;2.31;89.41;101959.16;5054407;28;20049;-67
2022/01/16 01:32:56;;;;;;;43.97;20.83;;;;;;;2.44;88.97;101969.91;5054436;28;20150;-67
2022/01/16 01:35:23;;;;;;;41.67;20.23;;;;;;;2.50;88.68;101914.59;5050863;28;20118;-67
2022/01/16 01:37:49;;;;;;;39.03;20.60;;;;;;;2.61;88.54;101893.13;5054365;28;20048;-67
2022/01/16 01:40:21;;;;;;;41.20;21.52;;;;;;;2.53;88.28;101890.00;5053308;28;20041;-67
2022/01/16 01:43:02;;;;;;;41.15;21.38;;;;;;;2.53;88.96;101887.41;5053867;28;20045;-67
2022/01/16 01:51:27;;;;;;;46.25;21.85;;;;;;;2.58;88.30;101935.19;5053536;28;20049;-67
2022/01/16 01:53:56;;;;;;;43.67;22.00;;;;;;;2.56;88.21;101950.97;5052950;28;20053;-67
2022/01/16 01:56:24;;;;;;;44.78;21.63;;;;;;;2.66;87.96;101964.50;5085129;28;20041;-68
2022/01/16 01:58:53;;;;;;;47.70;23.27;;;;;;;2.65;88.34;101965.41;5053780;28;20448;-68
2022/01/16 02:01:21;;;;;;;47.92;23.17;;;;;;;2.57;88.42;101964.94;5053598;28;20082;-68
2022/01/16 02:03:49;;;;;;;52.63;22.27;;;;;;;2.62;88.07;101968.16;5084639;28;20536;-68
2022/01/16 02:06:18;;;;;;;53.90;21.85;;;;;;;2.48;88.00;101969.69;5053222;28;20037;-68
2022/01/16 02:08:50;;;;;;;54.33;23.55;;;;;;;2.49;88.36;101968.78;5053441;28;20037;-67
2022/01/16 02:11:19;;;;;;;55.83;23.83;;;;;;;2.38;88.23;101952.69;5052523;28;20069;-68
2022/01/16 02:13:56;;;;;;;53.13;23.15;;;;;;;2.51;87.94;101963.47;5052312;28;20102;-69
2022/01/16 02:35:45;;;;;;;58.08;23.85;;;;;;;2.45;88.02;101971.59;5110182;28;20082;-68
2022/01/16 02:38:12;;;;;;;;;;;;;;;2.45;88.16;101972.44;5092969;28;20403;-68
2022/01/16 02:40:43;;;;;;;54.63;22.55;;;;;;;2.36;88.08;101969.41;5110575;28;19920;-68
2022/01/16 02:43:10;;;;;;;50.92;23.30;;;;;;;2.46;87.74;101974.16;5109341;28;20043;-68
2022/01/16 02:45:44;;;;;;;54.85;24.60;;;;;;;2.37;87.83;101948.38;5110039;28;20040;-68
2022/01/16 02:48:11;;;;;;;56.03;24.30;;;;;;;2.45;87.91;101940.16;5107111;28;20476;-68
2022/01/16 02:50:38;;;;;;;57.10;24.27;;;;;;;2.49;87.85;101934.72;5109935;28;20043;-68
2022/01/16 02:53:09;;;;;;;57.38;24.63;;;;;;;2.31;86.90;101935.59;5110251;28;20051;-68
2022/01/16 02:55:41;;;;;;;62.25;23.63;;;;;;;2.07;87.95;101932.31;5109844;28;20046;-68
2022/01/16 02:58:08;;;;;;;60.35;24.95;;;;;;;1.95;87.87;101917.16;5110579;28;20047;-68
2022/01/16 03:00:35;;;;;;;58.15;25.25;;;;;;;2.15;87.08;101906.63;5110211;28;20092;-68
2022/01/16 03:03:02;;;;;;;63.28;25.55;;;;;;;2.08;88.16;101908.69;5109195;28;20035;-68
2022/01/16 03:05:29;;;;;;;64.78;26.52;;;;;;;2.11;88.62;101905.06;5109693;28;20039;-68
2022/01/16 03:07:56;;;;;;;62.75;28.55;;;;;;;2.00;88.42;101913.44;5109829;28;20055;-68
2022/01/16 03:12:54;;;;;;;68.30;27.95;;;;;;;2.20;86.92;101901.16;5109693;28;20032;-68
2022/01/16 03:15:21;;;;;;;58.35;27.08;;;;;;;2.21;87.59;101901.09;5110146;28;20043;-68
2022/01/16 03:23:27;;;;;;;58.60;26.52;;;;;;;2.24;86.84;101902.75;5050363;28;20072;-67
2022/01/16 03:25:54;;;;;;;64.80;26.67;;;;;;;2.16;86.92;101907.47;5049394;28;20107;-68
2022/01/16 03:28:21;;;;;;;66.15;27.60;;;;;;;2.22;86.63;101899.31;5050019;28;20099;-68
2022/01/16 03:30:49;;;;;;;53.95;25.33;;;;;;;2.24;86.85;101900.13;5049900;28;20063;-68
2022/01/16 03:33:15;;;;;;;59.15;27.58;;;;;;;2.30;86.19;101897.22;5081788;28;20055;-68
2022/01/16 03:35:43;;;;;;;65.10;29.35;;;;;;;2.44;85.97;101888.72;5047233;28;20091;-67
2022/01/16 03:38:10;;;;;;;65.93;28.40;;;;;;;2.51;85.16;101897.97;5049975;28;20041;-67
2022/01/16 03:40:36;;;;;;;68.97;30.52;;;;;;;2.41;86.12;101897.53;5049887;28;20079;-67
2022/01/16 03:43:11;;;;;;;61.40;28.95;;;;;;;2.31;85.74;101904.16;5049628;28;20049;-67
2022/01/16 03:45:40;;;;;;;64.82;29.73;;;;;;;2.34;86.28;101906.63;5079315;28;20091;-67
2022/01/16 03:48:07;;;;;;;66.38;30.38;;;;;;;2.29;86.66;101895.50;5049546;28;20045;-67
2022/01/16 03:50:34;;;;;;;76.18;31.80;;;;;;;2.10;86.98;101892.91;5059987;28;20408;-67
2022/01/16 03:53:01;;;;;;;80.32;32.28;;;;;;;2.22;86.08;101884.50;5069498;28;20041;-67
2022/01/16 03:55:28;;;;;;;79.43;34.22;;;;;;;2.22;87.17;101876.63;5069333;28;20037;-67
2022/01/16 03:57:54;;;;;;;76.32;32.17;;;;;;;2.27;86.68;101887.75;5064227;28;20041;-67
2022/01/16 04:00:21;;;;;;;69.72;31.10;;;;;;;2.27;87.25;101892.09;5049449;28;20124;-67
2022/01/16 04:02:48;;;;;;;73.50;31.52;;;;;;;2.24;86.24;101887.88;5049411;28;20493;-67
2022/01/16 04:05:15;;;;;;;76.57;33.28;;;;;;;2.39;85.56;101894.16;5047411;28;20049;-67
2022/01/16 04:07:41;;;;;;;72.97;32.10;;;;;;;2.31;86.37;101888.44;5048983;28;20440;-67
2022/01/16 04:10:09;;;;;;;78.18;32.08;;;;;;;2.35;86.21;101897.84;5049215;28;20044;-67
2022/01/16 04:12:38;;;;;;;76.78;32.50;;;;;;;2.48;85.93;101905.97;5048793;28;20045;-67
2022/01/16 04:17:52;;;;;;;86.35;32.78;;;;;;;2.39;86.76;101896.78;5073036;27;20494;-68
2022/01/16 04:20:18;;;;;;;79.82;32.83;;;;;;;2.48;86.44;101900.72;5068776;28;20044;-68
2022/01/16 04:22:45;;;;;;;75.38;33.20;;;;;;;2.54;85.91;101907.44;5070139;28;20465;-68
2022/01/16 04:25:13;;;;;;;77.55;32.83;;;;;;;2.53;86.30;101911.84;5069361;28;20048;-68
2022/01/16 04:27:41;;;;;;;77.97;32.47;;;;;;;2.61;85.92;101904.44;5069972;28;20044;-68
2022/01/16 04:30:09;;;;;;;82.47;33.60;;;;;;;2.66;84.90;101897.22;5069906;28;20408;-68
2022/01/16 04:32:36;;;;;;;82.75;34.22;;;;;;;2.67;85.41;101904.16;5052269;28;20098;-68
2022/01/16 04:35:04;;;;;;;82.30;33.90;;;;;;;2.66;86.00;101899.00;5067659;28;20048;-68
2022/01/16 04:37:31;;;;;;;84.65;34.30;;;;;;;2.48;86.79;101904.19;5069365;28;20099;-68
2022/01/16 04:40:01;;;;;;;84.43;33.72;;;;;;;2.48;86.58;101911.22;5068543;28;20091;-68
2022/01/16 04:45:15;;;;;;;89.20;35.08;;;;;;;2.64;86.20;101906.09;5069254;28;20045;-68
2022/01/16 04:47:42;;;;;;;82.68;34.13;;;;;;;2.61;86.61;101912.31;5069645;28;20043;-68
2022/01/16 04:50:13;;;;;;;85.03;35.58;;;;;;;2.60;86.78;101912.38;5069081;28;20041;-68
2022/01/16 04:52:42;;;;;;;83.85;32.97;;;;;;;2.65;86.14;101915.63;5069244;28;20041;-68
2022/01/16 04:55:11;;;;;;;87.20;34.72;;;;;;;2.46;86.28;101911.28;5102012;28;20457;-68
2022/01/16 04:57:38;;;;;;;88.90;34.85;;;;;;;2.62;86.39;101915.75;5069892;28;20045;-68
2022/01/16 05:00:09;;;;;;;87.45;35.08;;;;;;;2.70;86.04;101916.25;5069268;28;20045;-69
2022/01/16 05:02:36;;;;;;;91.50;34.28;;;;;;;2.59;86.43;101915.94;5067960;28;20128;-68
2022/01/16 05:05:04;;;;;;;88.95;35.65;;;;;;;2.62;87.01;101908.78;5067249;28;20045;-68
2022/01/16 05:07:30;;;;;;;77.72;32.60;;;;;;;2.60;85.72;101900.16;5068867;28;20037;-68
2022/01/16 05:09:57;;;;;;;89.82;36.53;;;;;;;2.54;86.21;101895.19;5049764;28;20045;-68
2022/01/16 05:12:30;;;;;;;95.78;36.80;;;;;;;2.64;86.36;101908.72;5057637;28;20044;-68
2022/01/16 05:17:44;;;;;;;83.97;35.25;;;;;;;2.74;86.17;101896.84;5068628;28;20048;-68
2022/01/16 05:20:11;;;;;;;97.97;37.25;;;;;;;2.74;85.78;101888.13;5065251;28;20091;-68
2022/01/16 05:22:38;;;;;;;93.65;36.47;;;;;;;2.66;86.71;101894.59;5068610;28;20488;-68
2022/01/16 05:25:08;;;;;;;90.40;35.97;;;;;;;2.67;86.55;101892.81;5068013;28;20086;-68
2022/01/16 05:27:35;;;;;;;93.15;36.50;;;;;;;2.70;86.86;101884.81;5063238;28;20071;-68
2022/01/16 05:30:04;;;;;;;96.38;38.33;;;;;;;2.72;86.58;101885.59;5055302;28;20550;-68
2022/01/16 05:32:31;;;;;;;97.07;38.47;;;;;;;2.84;85.94;101885.00;5054167;28;20045;-68
2022/01/16 05:34:57;;;;;;;100.75;38.38;;;;;;;2.90;86.06;101885.63;5053956;28;20065;-68
2022/01/16 05:37:24;;;;;;;98.35;37.30;;;;;;;2.93;85.74;101893.31;5055133;28;20430;-68
2022/01/16 05:39:51;;;;;;;89.00;36.03;;;;;;;2.99;85.54;101893.00;5055800;28;20052;-68
2022/01/16 05:42:19;;;;;;;95.68;38.95;;;;;;;3.02;85.64;101891.09;5054925;28;20133;-68
2022/01/16 05:44:46;;;;;;;87.25;36.17;;;;;;;3.04;85.35;101883.16;5055384;28;20053;-68
2022/01/16 05:47:13;;;;;;;92.35;37.45;;;;;;;3.14;84.87;101894.00;5055299;28;20045;-68
2022/01/16 05:49:41;;;;;;;94.63;36.72;;;;;;;2.96;85.37;101901.03;5055040;28;20128;-68
2022/01/16 05:52:08;;;;;;;88.65;35.40;;;;;;;2.99;85.54;101898.25;5086864;28;20045;-68
2022/01/16 05:54:35;;;;;;;86.05;35.42;;;;;;;2.94;85.43;101903.72;5055044;28;20041;-68
2022/01/16 05:57:02;;;;;;;101.28;39.00;;;;;;;2.97;85.93;101908.81;5054483;28;20132;-68
2022/01/16 05:59:29;;;;;;;89.97;36.33;;;;;;;2.92;86.03;101907.34;5055177;28;20119;-68
2022/01/16 06:01:55;;;;;;;92.72;37.30;;;;;;;3.01;85.19;101907.72;5054691;28;20048;-68
2022/01/16 06:04:22;;;;;;;98.95;38.08;;;;;;;3.01;85.49;101906.91;5052793;28;20055;-68
2022/01/16 06:06:49;;;;;;;86.05;36.33;;;;;;;2.95;85.78;101892.31;5049102;28;20064;-68
2022/01/16 06:09:15;;;;;;;88.55;36.45;;;;;;;3.01;85.79;101892.00;5049955;28;20041;-68
2022/01/16 06:11:42;;;;;;;95.63;38.30;;;;;;;3.07;85.20;101889.09;5038937;28;20048;-68
2022/01/16 06:14:09;;;;;;;81.18;37.55;;;;;;;3.11;84.82;101881.91;5054718;28;20049;-68
2022/01/16 06:16:36;;;;;;;86.70;36.45;;;;;;;3.15;84.48;101880.00;5054257;28;20143;-68
2022/01/16 06:19:03;;;;;;;98.57;38.92;;;;;;;3.11;83.97;101883.66;5054550;28;20087;-68
2022/01/16 06:21:29;;;;;;;85.60;35.75;;;;;;;3.14;83.98;101883.53;5053048;28;20041;-68
2022/01/16 06:23:57;;;;;;;88.55;36.30;;;;;;;3.13;84.28;101889.69;5054253;28;20041;-68
2022/01/16 06:26:23;;;;;;;85.78;36.65;;;;;;;3.14;84.24;101896.63;5054186;28;20037;-68
2022/01/16 06:28:50;;;;;;;95.40;37.78;;;;;;;3.05;84.77;101895.31;5054391;28;20037;-68
2022/01/16 06:31:17;;;;;;;92.70;38.70;;;;;;;3.16;83.89;101905.28;5051110;28;20041;-68
2022/01/16 06:33:43;;;;;;;89.80;37.38;;;;;;;3.10;84.23;101913.47;5054202;28;20047;-68
2022/01/16 06:36:10;;;;;;;83.82;38.40;;;;;;;3.11;84.10;101920.38;5053579;28;20040;-68
2022/01/16 06:38:37;;;;;;;87.63;36.88;;;;;;;3.15;84.15;101909.69;5053839;28;20052;-68
2022/01/16 06:41:04;;;;;;;89.70;39.65;;;;;;;3.06;84.09;101918.84;5019284;28;20041;-68
2022/01/16 06:43:30;;;;;;;88.88;38.58;;;;;;;3.03;84.29;101928.63;5036543;28;20094;-68
2022/01/16 06:45:57;;;;;;;89.30;38.03;;;;;;;2.99;84.15;101929.72;5053552;28;20220;-68
2022/01/16 06:48:24;;;;;;;88.20;36.30;;;;;;;3.08;84.60;101921.41;5054103;28;20052;-68
2022/01/16 06:50:51;;;;;;;85.55;37.38;;;;;;;2.94;84.17;101922.06;5053651;28;20045;-68
2022/01/16 06:53:17;;;;;;;95.32;39.83;;;;;;;2.84;85.16;101919.06;5035946;28;20374;-68
2022/01/16 06:55:44;;;;;;;92.47;39.95;;;;;;;3.00;84.35;101915.66;5053560;28;20048;-68
2022/01/16 06:58:12;;;;;;;83.93;37.88;;;;;;;3.03;84.97;101920.78;5052425;28;20060;-68
2022/01/16 07:00:38;;;;;;;90.00;39.38;;;;;;;3.07;84.55;101923.19;5053774;28;20056;-68
2022/01/16 07:03:05;;;;;;;91.40;39.38;;;;;;;2.93;85.31;101927.38;5052737;28;20044;-68
2022/01/16 07:05:32;;;;;;;86.43;37.78;;;;;;;3.10;85.08;101921.31;5051227;28;20132;-68
2022/01/16 07:07:59;;;;;;;93.70;37.00;;;;;;;3.11;84.27;101917.75;5053202;28;20095;-67
2022/01/16 07:10:25;;;;;;;89.07;39.63;;;;;;;3.19;84.42;101923.47;5053614;28;20052;-67
2022/01/16 07:12:52;;;;;;;83.95;37.15;;;;;;;3.20;83.82;101925.16;5053346;28;20041;-68
2022/01/16 07:15:19;;;;;;;87.28;38.45;;;;;;;3.36;83.26;101939.19;5053297;28;20037;-68
2022/01/16 07:17:45;;;;;;;90.88;38.35;;;;;;;3.20;84.55;101940.91;5051958;28;20045;-68
2022/01/16 07:20:14;;;;;;;88.80;38.30;;;;;;;3.17;84.06;101943.69;5050713;28;20048;-67
2022/01/16 07:22:43;;;;;;;85.20;37.10;;;;;;;3.39;83.29;101938.22;5051812;28;20060;-67
2022/01/16 07:25:12;;;;;;;81.20;37.80;;;;;;;3.27;83.58;101950.16;5051990;28;20040;-67
2022/01/16 07:27:40;;;;;;;93.07;37.67;;;;;;;3.26;83.76;101951.09;5052611;28;20036;-68
2022/01/16 07:30:08;;;;;;;88.95;37.97;;;;;;;3.21;84.25;101956.56;5053148;28;20041;-68
2022/01/16 07:32:35;;;;;;;83.05;37.75;;;;;;;3.21;84.58;101955.72;5052863;28;20485;-68
2022/01/16 07:35:03;;;;;;;88.13;38.25;;;;;;;3.22;84.34;101950.41;5051065;28;20455;-68
2022/01/16 07:37:33;;;;;;;87.38;38.05;;;;;;;3.29;84.14;101958.78;5052708;28;20570;-68
2022/01/16 07:40:00;;;;;;;83.65;37.60;;;;;;;3.29;84.95;101973.69;5053247;28;20057;-67
2022/01/16 07:42:27;;;;;;;83.50;37.13;;;;;;;3.48;83.70;101971.00;5052935;28;20052;-68
2022/01/16 07:44:55;;;;;;;89.03;38.00;;;;;;;3.42;83.25;101967.75;5052713;28;20041;-68
2022/01/16 07:47:22;;;;;;;87.38;36.97;;;;;;;3.45;83.72;101966.75;5052373;28;20049;-68
2022/01/16 07:49:48;;;;;;;80.55;36.53;;;;;;;3.32;84.30;101965.69;5051804;28;20044;-68
2022/01/16 07:52:21;;;;;;;82.75;36.03;;;;;;;3.38;83.99;101981.09;5083181;28;20053;-68
2022/01/16 07:54:47;;;;;;;84.88;37.47;;;;;;;3.62;83.76;101974.63;5052755;28;20397;-67
2022/01/16 07:57:14;;;;;;;94.43;38.08;;;;;;;3.51;83.36;101978.69;5052530;28;20398;-67
2022/01/16 07:59:41;;;;;;;83.57;38.28;;;;;;;3.45;83.91;101985.94;5052619;28;20051;-68
2022/01/16 08:02:08;;;;;;;87.45;38.92;;;;;;;3.48;83.96;101990.22;5084761;28;20049;-68
2022/01/16 08:04:35;;;;;;;85.55;36.40;;;;;;;3.60;83.09;101983.47;5049726;28;20041;-68
2022/01/16 08:07:03;;;;;;;81.95;37.28;;;;;;;3.53;83.55;101993.44;5084550;28;20501;-68
2022/01/16 08:09:30;;;;;;;86.63;38.58;;;;;;;3.45;84.02;101996.44;5052754;28;20167;-67
2022/01/16 08:11:57;;;;;;;85.57;38.75;;;;;;;3.32;84.63;101989.28;5052134;28;20041;-67
2022/01/16 08:14:24;;;;;;;87.65;38.05;;;;;;;3.21;85.16;101981.94;5052092;28;20485;-67
2022/01/16 08:16:50;;;;;;;89.07;37.08;;;;;;;3.28;85.30;101983.34;5051465;28;20489;-68
2022/01/16 08:19:17;;;;;;;86.68;38.35;;;;;;;3.44;84.76;101984.25;5050933;28;20049;-68
2022/01/16 08:21:44;;;;;;;90.05;39.60;;;;;;;3.58;84.38;101986.16;5052308;28;20516;-68
2022/01/16 08:24:10;;;;;;;81.35;35.53;;;;;;;3.47;84.45;101985.88;5051403;28;20045;-67
2022/01/16 08:26:37;;;;;;;89.63;40.65;;;;;;;3.38;84.60;101981.09;5052185;28;20120;-67
2022/01/16 08:29:04;;;;;;;80.38;36.97;;;;;;;3.08;85.80;101985.16;5051926;28;20386;-68
2022/01/16 08:31:31;;;;;;;93.30;37.53;;;;;;;3.22;85.33;101979.25;5049599;28;20048;-67
2022/01/16 08:33:57;;;;;;;83.80;37.70;;;;;;;3.39;85.04;101988.06;5051010;28;20072;-67
2022/01/16 08:36:24;;;;;;;78.68;34.67;;;;;;;3.38;84.86;101984.56;5050972;28;20037;-67
2022/01/16 08:38:51;;;;;;;81.90;35.13;;;;;;;3.16;85.73;101987.41;5052363;28;20033;-67
2022/01/16 08:41:18;;;;;;;88.40;38.63;;;;;;;3.19;85.69;101992.50;5051729;28;20090;-67
2022/01/16 08:43:44;;;;;;;91.57;37.60;;;;;;;3.34;85.24;101992.66;5051038;28;20045;-67
2022/01/16 08:46:13;;;;;;;89.05;37.22;;;;;;;3.46;84.84;101999.94;5052154;28;20041;-67
2022/01/16 08:48:40;;;;;;;72.18;32.95;;;;;;;3.43;84.46;102005.31;5052148;28;20045;-68
2022/01/16 08:51:07;;;;;;;79.15;36.90;;;;;;;3.45;84.46;102006.94;5052154;28;20543;-68
2022/01/16 08:53:34;;;;;;;81.50;35.63;;;;;;;3.48;84.41;102007.72;5052086;28;20394;-68
2022/01/16 08:56:03;;;;;;;78.13;31.63;;;;;;;3.34;84.94;102014.50;5052020;28;20041;-67
2022/01/16 08:58:30;;;;;;;70.90;28.35;;;;;;;3.38;85.07;102018.66;5052227;28;20083;-67
2022/01/16 09:00:57;;;;;;;80.82;35.40;;;;;;;3.27;84.89;102031.47;5051976;28;20084;-68
2022/01/16 09:03:24;;;;;;;90.55;36.85;;;;;;;3.37;85.01;102031.88;5051884;28;20127;-67
2022/01/16 09:05:51;;;;;;;86.32;35.92;;;;;;;3.25;85.50;102026.28;5055613;28;20044;-68
2022/01/16 09:08:18;;;;;;;74.95;31.40;;;;;;;3.28;85.05;102029.72;5055588;28;20107;-67
2022/01/16 09:10:45;;;;;;;85.60;36.75;;;;;;;3.49;84.61;102023.38;5055816;28;20045;-67
2022/01/16 09:13:15;;;;;;;94.30;36.47;;;;;;;3.43;84.64;102024.53;5055738;28;20167;-68
2022/01/16 09:15:44;;;;;;;85.65;33.95;;;;;;;3.42;84.48;102032.47;5055032;28;20054;-67
2022/01/16 09:18:11;;;;;;;89.55;36.67;;;;;;;3.38;84.89;102038.81;5055804;28;20067;-67
2022/01/16 09:20:38;;;;;;;85.90;35.58;;;;;;;3.22;85.30;102036.06;5055535;28;20067;-68
2022/01/16 09:23:05;;;;;;;87.55;37.22;;;;;;;3.50;84.43;102040.00;5049834;28;20045;-68
2022/01/16 09:25:32;;;;;;;90.50;35.72;;;;;;;3.55;84.24;102035.38;5055060;28;20103;-68
2022/01/16 09:27:58;;;;;;;91.07;33.10;;;;;;;3.41;84.40;102043.91;5037080;28;20033;-67
2022/01/16 09:30:27;;;;;;;83.78;33.65;;;;;;;3.59;84.16;102042.16;5052520;28;20179;-67
2022/01/16 09:32:54;;;;;;;85.90;35.65;;;;;;;3.61;83.91;102045.53;5055187;28;20041;-67
2022/01/16 09:35:21;;;;;;;90.05;35.33;;;;;;;3.50;84.07;102055.72;5053076;28;20045;-68
2022/01/16 09:37:49;;;;;;;80.10;33.70;;;;;;;3.65;83.65;102055.78;5052726;28;20040;-68
2022/01/16 09:40:19;;;;;;;85.20;31.30;;;;;;;3.56;83.89;102048.38;5053944;28;20045;-67
2022/01/16 09:42:47;;;;;;;82.95;32.92;;;;;;;3.65;83.36;102053.16;5053205;28;20048;-67
2022/01/16 09:45:17;;;;;;;88.55;34.90;;;;;;;3.62;83.38;102053.34;5053413;28;20049;-67
2022/01/16 09:47:45;;;;;;;78.55;33.53;;;;;;;3.63;83.34;102054.19;5053367;28;20087;-67
2022/01/16 09:50:19;;;;;;;87.45;35.15;;;;;;;3.53;83.62;102059.06;5052156;28;20126;-67
2022/01/16 09:52:48;;;;;;;84.78;32.28;;;;;;;3.73;83.42;102059.81;5053233;28;20045;-66
2022/01/16 09:55:15;;;;;;;72.65;30.90;;;;;;;3.60;83.44;102070.06;5053508;28;20057;-67
2022/01/16 09:57:42;;;;;;;86.78;33.22;;;;;;;3.67;83.28;102068.84;5053129;28;20511;-67
2022/01/16 10:00:13;;;;;;;74.80;30.02;;;;;;;3.62;83.66;102068.22;5054587;28;20041;-67
2022/01/16 10:02:51;;;;;;;81.53;33.08;;;;;;;3.65;83.65;102061.03;5054503;28;20041;-67
2022/01/16 10:08:08;;;;;;;79.85;33.22;;;;;;;3.78;83.89;102069.19;5076208;27;20727;-67
2022/01/16 10:10:38;;;;;;;80.30;33.22;;;;;;;3.91;83.59;102064.16;5069905;28;20041;-67
2022/01/16 10:13:23;;;;;;;76.75;32.63;;;;;;;3.79;83.69;102077.88;5069075;28;20037;-67
2022/01/16 10:15:54;;;;;;;84.05;32.88;;;;;;;3.80;84.38;102080.44;5069204;28;20456;-67
2022/01/16 10:18:38;;;;;;;77.90;32.38;;;;;;;3.65;84.56;102079.41;5068472;28;20036;-68
2022/01/16 10:21:07;;;;;;;81.65;33.53;;;;;;;3.79;84.68;102078.72;5069175;28;20119;-68
2022/01/16 10:23:44;;;;;;;79.10;34.22;;;;;;;3.83;84.52;102079.44;5069169;28;20041;-68
2022/01/16 10:26:20;;;;;;;79.22;31.40;;;;;;;3.96;84.54;102075.25;5049033;28;20041;-68
2022/01/16 10:28:48;;;;;;;45.47;20.85;;;;;;;3.83;83.88;102075.00;5069165;28;20412;-68
2022/01/16 10:31:20;;;;;;;84.45;35.55;;;;;;;3.92;84.58;102075.50;5051450;28;20045;-68
2022/01/16 10:33:47;;;;;;;59.83;25.50;;;;;;;3.81;84.63;102079.50;5067448;28;20047;-68
2022/01/16 10:36:31;;;;;;;82.57;32.67;;;;;;;3.95;84.55;102070.94;5067069;28;20103;-67
2022/01/16 10:39:13;;;;;;;85.70;32.40;;;;;;;4.03;84.33;102074.00;5069140;28;20123;-67
2022/01/16 10:41:40;;;;;;;84.78;34.60;;;;;;;3.98;84.23;102072.53;5069127;28;20040;-66
2022/01/16 10:44:28;;;;;;;86.53;34.08;;;;;;;3.95;84.92;102075.34;5068709;28;20443;-66
2022/01/16 10:46:55;;;;;;;81.57;29.40;;;;;;;3.88;85.37;102080.06;5068644;28;20060;-66
2022/01/16 10:49:21;;;;;;;84.75;31.63;;;;;;;3.90;85.04;102087.84;5068842;28;20048;-66
2022/01/16 10:52:07;;;;;;;79.63;29.90;;;;;;;3.85;85.65;102078.41;5067458;28;20397;-66
2022/01/16 10:54:37;;;;;;;85.72;30.48;;;;;;;3.91;85.59;102082.53;5067983;28;20527;-66
2022/01/16 10:57:24;;;;;;;92.00;33.78;;;;;;;3.86;85.63;102089.78;5068532;28;20075;-66
2022/01/16 11:00:15;;;;;;;93.10;31.95;;;;;;;3.96;85.68;102084.91;5068228;28;20321;-66
2022/01/16 11:02:44;;;;;;;89.20;31.90;;;;;;;3.99;84.96;102080.34;5067467;28;20055;-67
2022/01/16 11:05:15;;;;;;;75.47;27.38;;;;;;;4.01;85.06;102088.16;5065930;28;20041;-67
2022/01/16 11:07:43;;;;;;;94.55;35.42;;;;;;;3.99;85.51;102092.63;5068299;28;20088;-67
2022/01/16 11:10:30;;;;;;;86.30;31.40;;;;;;;3.99;85.34;102097.88;5068588;28;20049;-67
2022/01/16 11:13:00;;;;;;;92.82;32.80;;;;;;;4.07;85.44;102108.84;5068083;28;20063;-67
2022/01/16 11:15:28;;;;;;;85.63;30.38;;;;;;;3.83;85.99;102109.16;5067962;28;20044;-67
2022/01/16 11:17:55;;;;;;;102.22;35.47;;;;;;;4.04;85.49;102119.50;5062430;28;20063;-67
2022/01/16 11:20:28;;;;;;;97.35;33.47;;;;;;;3.97;85.53;102103.22;5054128;28;20063;-67
2022/01/16 11:23:01;;;;;;;97.13;34.05;;;;;;;4.01;85.99;102110.00;5041672;28;20099;-67
2022/01/16 11:25:31;;;;;;;90.63;32.35;;;;;;;3.98;85.94;102110.16;5054529;28;20095;-66
2022/01/16 11:28:15;;;;;;;90.20;32.58;;;;;;;4.00;85.53;102125.81;5054487;28;20480;-67
2022/01/16 11:30:47;;;;;;;88.72;31.85;;;;;;;4.08;85.77;102122.84;5053247;28;20500;-66
2022/01/16 11:33:18;;;;;;;97.80;35.38;;;;;;;4.04;85.64;102112.47;5054549;28;20067;-67
2022/01/16 11:35:50;;;;;;;113.60;35.65;;;;;;;4.07;86.01;102116.72;5053240;28;20052;-66
2022/01/16 11:38:21;;;;;;;90.22;31.52;;;;;;;4.12;85.84;102106.81;5053969;28;20094;-68
2022/01/16 11:40:49;;;;;;;97.22;35.03;;;;;;;4.10;85.75;102105.22;5054335;28;20041;-67
2022/01/16 11:43:37;;;;;;;106.65;35.45;;;;;;;4.10;85.91;102106.06;5051923;28;20140;-67
2022/01/16 11:46:07;;;;;;;90.10;33.78;;;;;;;4.26;85.12;102107.88;5048265;28;20527;-67
2022/01/16 11:48:47;;;;;;;92.13;32.10;;;;;;;4.25;84.77;102098.31;5034549;28;20037;-67
2022/01/16 11:54:27;;;;;;;90.88;33.80;;;;;;;4.20;85.07;102098.53;5123857;27;20755;-68
2022/01/16 11:56:59;;;;;;;80.80;29.83;;;;;;;4.26;84.49;102113.13;5112629;28;20147;-66
2022/01/16 11:59:38;;;;;;;71.80;27.15;;;;;;;4.26;84.30;102105.25;5074820;28;20426;-66
2022/01/16 12:02:17;;;;;;;86.30;33.28;;;;;;;4.34;83.99;102098.69;5091789;28;20068;-65
2022/01/16 12:09:58;;;;;;;77.72;29.02;;;;;;;4.19;84.26;102102.13;5139021;27;20372;-68
2022/01/16 12:15:05;;;;;;;78.78;28.35;;;;;;;4.12;84.21;102104.19;5078202;27;20414;-67
2022/01/16 12:17:45;;;;;;;69.28;27.10;;;;;;;4.11;83.96;102102.50;5069740;28;20560;-66
2022/01/16 12:20:17;;;;;;;69.13;26.25;;;;;;;4.26;84.05;102116.63;5067751;28;20047;-67